sensor_id;sensor_type;location;lat;lon;timestamp;P1;durP1;ratioP1;P2;durP2;ratioP2
44328;SDS011;30039;51.462;6.892;2023-06-14T00:00:03;5.95;;;4.60;;
44328;SDS011;30039;51.462;6.892;2023-06-14T00:02:49;11.00;;;5.53;;
44328;SDS011;30039;51.462;6.892;2023-06-14T00:05:36;6.72;;;4.47;;
44328;SDS011;30039;51.462;6.892;2023-06-14T00:08:26;10.10;;;4.40;;
44328;SDS011;30039;51.462;6.892;2023-06-14T00:11:11;7.68;;;4.88;;
44328;SDS011;30039;51.462;6.892;2023-06-14T00:13:57;6.72;;;4.38;;
44328;SDS011;30039;51.462;6.892;2023-06-14T00:16:44;6.65;;;4.32;;
44328;SDS011;30039;51.462;6.892;2023-06-14T00:19:30;6.43;;;4.25;;
44328;SDS011;30039;51.462;6.892;2023-06-14T00:22:19;6.97;;;4.60;;
44328;SDS011;30039;51.462;6.892;2023-06-14T00:25:07;6.78;;;4.65;;
44328;SDS011;30039;51.462;6.892;2023-06-14T00:27:54;7.85;;;5.20;;
44328;SDS011;30039;51.462;6.892;2023-06-14T00:30:39;8.02;;;4.95;;
44328;SDS011;30039;51.462;6.892;2023-06-14T00:33:25;10.55;;;5.70;;
44328;SDS011;30039;51.462;6.892;2023-06-14T00:36:11;7.18;;;4.40;;
44328;SDS011;30039;51.462;6.892;2023-06-14T00:38:58;7.35;;;4.85;;
44328;SDS011;30039;51.462;6.892;2023-06-14T00:41:43;7.10;;;4.13;;
44328;SDS011;30039;51.462;6.892;2023-06-14T00:44:29;8.27;;;4.63;;
44328;SDS011;30039;51.462;6.892;2023-06-14T00:47:15;5.70;;;4.18;;
44328;SDS011;30039;51.462;6.892;2023-06-14T00:50:02;7.20;;;4.93;;
44328;SDS011;30039;51.462;6.892;2023-06-14T00:52:47;6.80;;;4.30;;
44328;SDS011;30039;51.462;6.892;2023-06-14T00:55:33;7.38;;;4.15;;
44328;SDS011;30039;51.462;6.892;2023-06-14T00:58:19;6.90;;;4.13;;
44328;SDS011;30039;51.462;6.892;2023-06-14T01:01:06;8.15;;;4.30;;
44328;SDS011;30039;51.462;6.892;2023-06-14T01:03:52;5.45;;;4.65;;
44328;SDS011;30039;51.462;6.892;2023-06-14T01:06:59;6.45;;;4.10;;
44328;SDS011;30039;51.462;6.892;2023-06-14T01:13:11;6.40;;;4.05;;
44328;SDS011;30039;51.462;6.892;2023-06-14T01:15:58;5.90;;;4.05;;
44328;SDS011;30039;51.462;6.892;2023-06-14T01:18:44;5.00;;;3.80;;
44328;SDS011;30039;51.462;6.892;2023-06-14T01:21:33;5.07;;;4.03;;
44328;SDS011;30039;51.462;6.892;2023-06-14T01:24:27;8.13;;;3.97;;
44328;SDS011;30039;51.462;6.892;2023-06-14T01:27:17;5.68;;;3.53;;
44328;SDS011;30039;51.462;6.892;2023-06-14T01:30:04;5.63;;;4.00;;
44328;SDS011;30039;51.462;6.892;2023-06-14T01:32:51;9.77;;;4.35;;
44328;SDS011;30039;51.462;6.892;2023-06-14T01:35:37;6.60;;;3.92;;
44328;SDS011;30039;51.462;6.892;2023-06-14T01:38:24;5.20;;;3.50;;
44328;SDS011;30039;51.462;6.892;2023-06-14T01:41:10;8.45;;;3.83;;
44328;SDS011;30039;51.462;6.892;2023-06-14T01:43:56;5.32;;;3.92;;
44328;SDS011;30039;51.462;6.892;2023-06-14T01:46:43;4.65;;;3.42;;
44328;SDS011;30039;51.462;6.892;2023-06-14T01:49:29;5.32;;;3.75;;
44328;SDS011;30039;51.462;6.892;2023-06-14T01:52:14;5.28;;;3.72;;
44328;SDS011;30039;51.462;6.892;2023-06-14T01:55:00;5.30;;;3.47;;
44328;SDS011;30039;51.462;6.892;2023-06-14T01:57:49;7.68;;;3.58;;
44328;SDS011;30039;51.462;6.892;2023-06-14T02:00:34;5.28;;;3.33;;
44328;SDS011;30039;51.462;6.892;2023-06-14T02:03:20;5.78;;;3.78;;
44328;SDS011;30039;51.462;6.892;2023-06-14T02:06:07;5.78;;;3.78;;
44328;SDS011;30039;51.462;6.892;2023-06-14T02:08:53;7.43;;;3.85;;
44328;SDS011;30039;51.462;6.892;2023-06-14T02:11:39;7.07;;;3.75;;
44328;SDS011;30039;51.462;6.892;2023-06-14T02:14:24;4.78;;;3.55;;
44328;SDS011;30039;51.462;6.892;2023-06-14T02:17:10;6.03;;;3.53;;
44328;SDS011;30039;51.462;6.892;2023-06-14T02:19:59;6.82;;;3.58;;
44328;SDS011;30039;51.462;6.892;2023-06-14T02:22:45;8.13;;;3.80;;
44328;SDS011;30039;51.462;6.892;2023-06-14T02:25:30;5.43;;;3.55;;
44328;SDS011;30039;51.462;6.892;2023-06-14T02:28:16;6.43;;;3.80;;
44328;SDS011;30039;51.462;6.892;2023-06-14T02:31:02;4.70;;;3.35;;
44328;SDS011;30039;51.462;6.892;2023-06-14T02:33:48;7.70;;;4.07;;
44328;SDS011;30039;51.462;6.892;2023-06-14T02:36:34;7.38;;;3.72;;
44328;SDS011;30039;51.462;6.892;2023-06-14T02:39:20;4.03;;;3.30;;
44328;SDS011;30039;51.462;6.892;2023-06-14T02:42:06;8.00;;;3.78;;
44328;SDS011;30039;51.462;6.892;2023-06-14T02:44:53;4.75;;;3.30;;
44328;SDS011;30039;51.462;6.892;2023-06-14T02:47:39;4.10;;;2.95;;
44328;SDS011;30039;51.462;6.892;2023-06-14T02:50:25;5.95;;;3.45;;
44328;SDS011;30039;51.462;6.892;2023-06-14T02:53:11;6.85;;;3.55;;
44328;SDS011;30039;51.462;6.892;2023-06-14T02:55:57;5.15;;;2.95;;
44328;SDS011;30039;51.462;6.892;2023-06-14T02:58:43;4.90;;;3.40;;
44328;SDS011;30039;51.462;6.892;2023-06-14T03:01:30;4.57;;;3.20;;
44328;SDS011;30039;51.462;6.892;2023-06-14T03:04:19;5.70;;;3.17;;
44328;SDS011;30039;51.462;6.892;2023-06-14T03:07:08;4.55;;;3.20;;
44328;SDS011;30039;51.462;6.892;2023-06-14T03:09:57;5.18;;;2.88;;
44328;SDS011;30039;51.462;6.892;2023-06-14T03:12:43;4.63;;;3.28;;
44328;SDS011;30039;51.462;6.892;2023-06-14T03:15:28;6.05;;;3.13;;
44328;SDS011;30039;51.462;6.892;2023-06-14T03:18:14;5.40;;;3.35;;
44328;SDS011;30039;51.462;6.892;2023-06-14T03:21:01;9.10;;;3.25;;
44328;SDS011;30039;51.462;6.892;2023-06-14T03:23:47;8.15;;;3.20;;
44328;SDS011;30039;51.462;6.892;2023-06-14T03:26:33;4.80;;;3.20;;
44328;SDS011;30039;51.462;6.892;2023-06-14T03:29:19;6.72;;;3.33;;
44328;SDS011;30039;51.462;6.892;2023-06-14T03:32:05;6.35;;;3.00;;
44328;SDS011;30039;51.462;6.892;2023-06-14T03:34:51;4.47;;;3.10;;
44328;SDS011;30039;51.462;6.892;2023-06-14T03:37:37;5.97;;;2.92;;
44328;SDS011;30039;51.462;6.892;2023-06-14T03:40:23;4.20;;;2.70;;
44328;SDS011;30039;51.462;6.892;2023-06-14T03:43:11;7.45;;;2.85;;
44328;SDS011;30039;51.462;6.892;2023-06-14T03:45:56;4.47;;;3.15;;
44328;SDS011;30039;51.462;6.892;2023-06-14T03:48:42;4.65;;;2.80;;
44328;SDS011;30039;51.462;6.892;2023-06-14T03:51:28;5.82;;;3.38;;
44328;SDS011;30039;51.462;6.892;2023-06-14T03:54:14;4.68;;;2.72;;
44328;SDS011;30039;51.462;6.892;2023-06-14T03:57:01;3.63;;;2.50;;
44328;SDS011;30039;51.462;6.892;2023-06-14T03:59:46;7.05;;;3.10;;
44328;SDS011;30039;51.462;6.892;2023-06-14T04:02:33;6.68;;;2.70;;
44328;SDS011;30039;51.462;6.892;2023-06-14T04:05:19;6.70;;;3.10;;
44328;SDS011;30039;51.462;6.892;2023-06-14T04:08:05;4.50;;;2.65;;
44328;SDS011;30039;51.462;6.892;2023-06-14T04:10:54;7.18;;;3.03;;
44328;SDS011;30039;51.462;6.892;2023-06-14T04:13:40;5.63;;;2.75;;
44328;SDS011;30039;51.462;6.892;2023-06-14T04:16:27;7.95;;;2.80;;
44328;SDS011;30039;51.462;6.892;2023-06-14T04:19:12;5.03;;;2.83;;
44328;SDS011;30039;51.462;6.892;2023-06-14T04:21:58;4.55;;;2.80;;
44328;SDS011;30039;51.462;6.892;2023-06-14T04:24:46;4.05;;;2.75;;
44328;SDS011;30039;51.462;6.892;2023-06-14T04:27:32;6.20;;;2.72;;
44328;SDS011;30039;51.462;6.892;2023-06-14T04:30:21;4.25;;;2.50;;
44328;SDS011;30039;51.462;6.892;2023-06-14T04:33:12;5.75;;;2.60;;
44328;SDS011;30039;51.462;6.892;2023-06-14T04:35:58;4.50;;;2.83;;
44328;SDS011;30039;51.462;6.892;2023-06-14T04:38:46;4.70;;;2.72;;
44328;SDS011;30039;51.462;6.892;2023-06-14T04:41:32;4.43;;;2.75;;
44328;SDS011;30039;51.462;6.892;2023-06-14T04:44:18;6.32;;;3.05;;
44328;SDS011;30039;51.462;6.892;2023-06-14T04:47:07;7.10;;;2.95;;
44328;SDS011;30039;51.462;6.892;2023-06-14T04:49:53;4.60;;;3.03;;
44328;SDS011;30039;51.462;6.892;2023-06-14T04:52:40;5.45;;;2.75;;
44328;SDS011;30039;51.462;6.892;2023-06-14T04:55:26;6.15;;;2.80;;
44328;SDS011;30039;51.462;6.892;2023-06-14T04:58:12;7.55;;;3.00;;
44328;SDS011;30039;51.462;6.892;2023-06-14T05:00:58;4.75;;;2.85;;
44328;SDS011;30039;51.462;6.892;2023-06-14T05:03:48;5.57;;;3.03;;
44328;SDS011;30039;51.462;6.892;2023-06-14T05:06:34;5.93;;;2.60;;
44328;SDS011;30039;51.462;6.892;2023-06-14T05:09:21;4.55;;;2.80;;
44328;SDS011;30039;51.462;6.892;2023-06-14T05:12:07;5.60;;;2.55;;
44328;SDS011;30039;51.462;6.892;2023-06-14T05:14:53;5.05;;;2.80;;
44328;SDS011;30039;51.462;6.892;2023-06-14T05:17:39;3.80;;;2.53;;
44328;SDS011;30039;51.462;6.892;2023-06-14T05:20:25;4.97;;;2.42;;
44328;SDS011;30039;51.462;6.892;2023-06-14T05:23:11;5.93;;;2.58;;
44328;SDS011;30039;51.462;6.892;2023-06-14T05:26:01;7.85;;;2.65;;
44328;SDS011;30039;51.462;6.892;2023-06-14T05:28:50;4.85;;;3.17;;
44328;SDS011;30039;51.462;6.892;2023-06-14T05:31:39;7.03;;;2.60;;
44328;SDS011;30039;51.462;6.892;2023-06-14T05:34:25;5.30;;;2.50;;
44328;SDS011;30039;51.462;6.892;2023-06-14T05:37:12;5.22;;;2.72;;
44328;SDS011;30039;51.462;6.892;2023-06-14T05:39:58;3.67;;;2.85;;
44328;SDS011;30039;51.462;6.892;2023-06-14T05:42:44;4.60;;;2.80;;
44328;SDS011;30039;51.462;6.892;2023-06-14T05:45:30;5.38;;;2.97;;
44328;SDS011;30039;51.462;6.892;2023-06-14T05:48:15;4.43;;;2.55;;
44328;SDS011;30039;51.462;6.892;2023-06-14T05:51:01;5.18;;;2.95;;
44328;SDS011;30039;51.462;6.892;2023-06-14T05:53:47;4.38;;;2.38;;
44328;SDS011;30039;51.462;6.892;2023-06-14T05:56:33;7.45;;;2.85;;
44328;SDS011;30039;51.462;6.892;2023-06-14T05:59:20;5.10;;;2.95;;
44328;SDS011;30039;51.462;6.892;2023-06-14T06:02:05;7.20;;;2.95;;
44328;SDS011;30039;51.462;6.892;2023-06-14T06:04:51;5.32;;;2.50;;
44328;SDS011;30039;51.462;6.892;2023-06-14T06:07:37;5.75;;;2.83;;
44328;SDS011;30039;51.462;6.892;2023-06-14T06:10:23;4.70;;;2.63;;
44328;SDS011;30039;51.462;6.892;2023-06-14T06:13:08;5.05;;;2.88;;
44328;SDS011;30039;51.462;6.892;2023-06-14T06:15:54;6.68;;;2.70;;
44328;SDS011;30039;51.462;6.892;2023-06-14T06:18:41;8.55;;;2.70;;
44328;SDS011;30039;51.462;6.892;2023-06-14T06:21:27;4.35;;;2.72;;
44328;SDS011;30039;51.462;6.892;2023-06-14T06:24:13;4.30;;;2.47;;
44328;SDS011;30039;51.462;6.892;2023-06-14T06:26:58;4.50;;;2.65;;
44328;SDS011;30039;51.462;6.892;2023-06-14T06:29:44;3.90;;;2.50;;
44328;SDS011;30039;51.462;6.892;2023-06-14T06:32:30;3.83;;;2.28;;
44328;SDS011;30039;51.462;6.892;2023-06-14T06:35:16;4.65;;;2.15;;
44328;SDS011;30039;51.462;6.892;2023-06-14T06:38:01;4.10;;;2.05;;
44328;SDS011;30039;51.462;6.892;2023-06-14T06:40:47;3.80;;;2.20;;
44328;SDS011;30039;51.462;6.892;2023-06-14T06:43:33;2.83;;;1.92;;
44328;SDS011;30039;51.462;6.892;2023-06-14T06:46:18;4.78;;;2.33;;
44328;SDS011;30039;51.462;6.892;2023-06-14T06:49:04;3.28;;;1.95;;
44328;SDS011;30039;51.462;6.892;2023-06-14T06:52:03;5.65;;;1.92;;
44328;SDS011;30039;51.462;6.892;2023-06-14T06:54:49;4.18;;;2.20;;
44328;SDS011;30039;51.462;6.892;2023-06-14T06:57:35;6.22;;;1.98;;
44328;SDS011;30039;51.462;6.892;2023-06-14T07:00:21;2.53;;;1.67;;
44328;SDS011;30039;51.462;6.892;2023-06-14T07:03:08;5.47;;;2.00;;
44328;SDS011;30039;51.462;6.892;2023-06-14T07:05:54;3.30;;;2.00;;
44328;SDS011;30039;51.462;6.892;2023-06-14T07:08:42;4.60;;;1.75;;
44328;SDS011;30039;51.462;6.892;2023-06-14T07:11:28;4.07;;;1.50;;
44328;SDS011;30039;51.462;6.892;2023-06-14T07:14:13;5.72;;;1.60;;
44328;SDS011;30039;51.462;6.892;2023-06-14T07:16:59;2.92;;;1.83;;
44328;SDS011;30039;51.462;6.892;2023-06-14T07:19:45;3.90;;;1.65;;
44328;SDS011;30039;51.462;6.892;2023-06-14T07:22:31;2.47;;;1.58;;
44328;SDS011;30039;51.462;6.892;2023-06-14T07:25:17;2.80;;;1.80;;
44328;SDS011;30039;51.462;6.892;2023-06-14T07:28:05;3.78;;;1.50;;
44328;SDS011;30039;51.462;6.892;2023-06-14T07:30:50;4.20;;;1.67;;
44328;SDS011;30039;51.462;6.892;2023-06-14T07:33:36;3.85;;;1.60;;
44328;SDS011;30039;51.462;6.892;2023-06-14T07:36:22;2.40;;;1.60;;
44328;SDS011;30039;51.462;6.892;2023-06-14T07:39:08;2.63;;;1.60;;
44328;SDS011;30039;51.462;6.892;2023-06-14T07:41:54;3.35;;;1.52;;
44328;SDS011;30039;51.462;6.892;2023-06-14T07:44:40;3.47;;;1.60;;
44328;SDS011;30039;51.462;6.892;2023-06-14T07:47:26;4.18;;;1.52;;
44328;SDS011;30039;51.462;6.892;2023-06-14T07:50:12;2.65;;;1.70;;
44328;SDS011;30039;51.462;6.892;2023-06-14T07:52:58;2.78;;;1.67;;
44328;SDS011;30039;51.462;6.892;2023-06-14T07:55:44;3.42;;;1.75;;
44328;SDS011;30039;51.462;6.892;2023-06-14T07:58:30;2.47;;;1.60;;
44328;SDS011;30039;51.462;6.892;2023-06-14T08:01:16;8.35;;;1.80;;
44328;SDS011;30039;51.462;6.892;2023-06-14T08:04:02;3.75;;;1.45;;
44328;SDS011;30039;51.462;6.892;2023-06-14T08:06:48;3.75;;;1.60;;
44328;SDS011;30039;51.462;6.892;2023-06-14T08:09:35;7.55;;;1.90;;
44328;SDS011;30039;51.462;6.892;2023-06-14T08:12:23;2.38;;;1.60;;
44328;SDS011;30039;51.462;6.892;2023-06-14T08:15:08;2.60;;;1.77;;
44328;SDS011;30039;51.462;6.892;2023-06-14T08:17:54;4.57;;;1.75;;
44328;SDS011;30039;51.462;6.892;2023-06-14T08:20:40;2.90;;;2.00;;
44328;SDS011;30039;51.462;6.892;2023-06-14T08:23:28;5.03;;;1.92;;
44328;SDS011;30039;51.462;6.892;2023-06-14T08:26:13;3.00;;;2.00;;
44328;SDS011;30039;51.462;6.892;2023-06-14T08:29:00;2.90;;;1.70;;
44328;SDS011;30039;51.462;6.892;2023-06-14T08:31:46;2.95;;;1.70;;
44328;SDS011;30039;51.462;6.892;2023-06-14T08:34:32;3.60;;;1.50;;
44328;SDS011;30039;51.462;6.892;2023-06-14T08:37:18;3.88;;;1.70;;
44328;SDS011;30039;51.462;6.892;2023-06-14T08:40:03;2.70;;;1.42;;
44328;SDS011;30039;51.462;6.892;2023-06-14T08:42:52;3.80;;;1.70;;
44328;SDS011;30039;51.462;6.892;2023-06-14T08:45:38;5.05;;;1.55;;
44328;SDS011;30039;51.462;6.892;2023-06-14T08:48:24;3.03;;;1.60;;
44328;SDS011;30039;51.462;6.892;2023-06-14T08:51:11;5.18;;;1.92;;
44328;SDS011;30039;51.462;6.892;2023-06-14T08:53:58;8.43;;;2.13;;
44328;SDS011;30039;51.462;6.892;2023-06-14T08:56:43;3.10;;;1.50;;
44328;SDS011;30039;51.462;6.892;2023-06-14T08:59:29;3.85;;;1.98;;
44328;SDS011;30039;51.462;6.892;2023-06-14T09:02:16;3.88;;;2.03;;
44328;SDS011;30039;51.462;6.892;2023-06-14T09:05:05;3.88;;;2.00;;
44328;SDS011;30039;51.462;6.892;2023-06-14T09:07:50;2.35;;;1.60;;
44328;SDS011;30039;51.462;6.892;2023-06-14T09:10:36;5.53;;;1.60;;
44328;SDS011;30039;51.462;6.892;2023-06-14T09:13:22;2.65;;;1.40;;
44328;SDS011;30039;51.462;6.892;2023-06-14T09:16:09;3.00;;;1.70;;
44328;SDS011;30039;51.462;6.892;2023-06-14T09:18:55;5.05;;;1.63;;
44328;SDS011;30039;51.462;6.892;2023-06-14T09:21:41;4.13;;;1.52;;
44328;SDS011;30039;51.462;6.892;2023-06-14T09:24:27;2.15;;;1.40;;
44328;SDS011;30039;51.462;6.892;2023-06-14T09:27:16;2.38;;;1.40;;
44328;SDS011;30039;51.462;6.892;2023-06-14T09:30:05;1.92;;;1.35;;
44328;SDS011;30039;51.462;6.892;2023-06-14T09:32:52;1.75;;;1.15;;
44328;SDS011;30039;51.462;6.892;2023-06-14T09:35:38;2.67;;;1.38;;
44328;SDS011;30039;51.462;6.892;2023-06-14T09:38:24;6.55;;;1.45;;
44328;SDS011;30039;51.462;6.892;2023-06-14T09:41:10;2.38;;;1.40;;
44328;SDS011;30039;51.462;6.892;2023-06-14T09:43:57;2.50;;;1.27;;
44328;SDS011;30039;51.462;6.892;2023-06-14T09:46:45;2.08;;;1.10;;
44328;SDS011;30039;51.462;6.892;2023-06-14T09:49:31;2.20;;;1.20;;
44328;SDS011;30039;51.462;6.892;2023-06-14T09:52:18;2.38;;;1.55;;
44328;SDS011;30039;51.462;6.892;2023-06-14T09:55:06;2.47;;;1.30;;
44328;SDS011;30039;51.462;6.892;2023-06-14T09:57:54;2.72;;;1.20;;
44328;SDS011;30039;51.462;6.892;2023-06-14T10:00:43;2.20;;;1.45;;
44328;SDS011;30039;51.462;6.892;2023-06-14T10:03:29;2.42;;;1.10;;
44328;SDS011;30039;51.462;6.892;2023-06-14T10:06:16;2.67;;;1.13;;
44328;SDS011;30039;51.462;6.892;2023-06-14T10:09:02;1.35;;;1.08;;
44328;SDS011;30039;51.462;6.892;2023-06-14T10:11:50;2.95;;;1.20;;
44328;SDS011;30039;51.462;6.892;2023-06-14T10:14:35;1.83;;;1.20;;
44328;SDS011;30039;51.462;6.892;2023-06-14T10:17:42;1.83;;;1.40;;
44328;SDS011;30039;51.462;6.892;2023-06-14T10:20:36;1.85;;;1.20;;
44328;SDS011;30039;51.462;6.892;2023-06-14T10:23:24;4.15;;;1.45;;
44328;SDS011;30039;51.462;6.892;2023-06-14T10:26:17;3.08;;;1.20;;
44328;SDS011;30039;51.462;6.892;2023-06-14T10:29:09;1.80;;;1.00;;
44328;SDS011;30039;51.462;6.892;2023-06-14T10:31:58;2.15;;;1.15;;
44328;SDS011;30039;51.462;6.892;2023-06-14T10:34:44;2.55;;;1.10;;
44328;SDS011;30039;51.462;6.892;2023-06-14T10:37:30;1.35;;;0.98;;
44328;SDS011;30039;51.462;6.892;2023-06-14T10:40:31;1.05;;;0.90;;
44328;SDS011;30039;51.462;6.892;2023-06-14T10:43:21;1.05;;;0.73;;
44328;SDS011;30039;51.462;6.892;2023-06-14T10:46:17;3.25;;;0.82;;
44328;SDS011;30039;51.462;6.892;2023-06-14T10:49:03;1.80;;;1.10;;
44328;SDS011;30039;51.462;6.892;2023-06-14T10:51:49;1.50;;;1.05;;
44328;SDS011;30039;51.462;6.892;2023-06-14T10:54:35;3.53;;;1.05;;
44328;SDS011;30039;51.462;6.892;2023-06-14T10:57:21;1.55;;;1.08;;
44328;SDS011;30039;51.462;6.892;2023-06-14T11:00:07;4.85;;;1.20;;
44328;SDS011;30039;51.462;6.892;2023-06-14T11:06:12;2.03;;;1.15;;
44328;SDS011;30039;51.462;6.892;2023-06-14T11:12:04;2.95;;;1.00;;
44328;SDS011;30039;51.462;6.892;2023-06-14T11:14:51;2.05;;;1.40;;
44328;SDS011;30039;51.462;6.892;2023-06-14T11:17:37;1.40;;;1.15;;
44328;SDS011;30039;51.462;6.892;2023-06-14T11:20:26;3.05;;;1.30;;
44328;SDS011;30039;51.462;6.892;2023-06-14T11:23:11;6.72;;;1.15;;
44328;SDS011;30039;51.462;6.892;2023-06-14T11:25:58;1.60;;;1.15;;
44328;SDS011;30039;51.462;6.892;2023-06-14T11:28:45;1.52;;;1.02;;
44328;SDS011;30039;51.462;6.892;2023-06-14T11:31:31;1.77;;;1.15;;
44328;SDS011;30039;51.462;6.892;2023-06-14T11:34:16;2.38;;;1.10;;
44328;SDS011;30039;51.462;6.892;2023-06-14T11:37:02;3.10;;;1.17;;
44328;SDS011;30039;51.462;6.892;2023-06-14T11:39:48;1.73;;;1.15;;
44328;SDS011;30039;51.462;6.892;2023-06-14T11:42:34;1.45;;;1.10;;
44328;SDS011;30039;51.462;6.892;2023-06-14T11:45:20;3.38;;;1.33;;
44328;SDS011;30039;51.462;6.892;2023-06-14T11:48:06;1.35;;;1.10;;
44328;SDS011;30039;51.462;6.892;2023-06-14T11:50:51;2.20;;;1.20;;
44328;SDS011;30039;51.462;6.892;2023-06-14T11:53:38;4.35;;;1.20;;
44328;SDS011;30039;51.462;6.892;2023-06-14T11:56:24;1.42;;;1.25;;
44328;SDS011;30039;51.462;6.892;2023-06-14T11:59:10;2.20;;;1.30;;
44328;SDS011;30039;51.462;6.892;2023-06-14T12:01:58;3.47;;;1.30;;
44328;SDS011;30039;51.462;6.892;2023-06-14T12:04:48;1.90;;;1.08;;
44328;SDS011;30039;51.462;6.892;2023-06-14T12:07:34;2.85;;;1.10;;
44328;SDS011;30039;51.462;6.892;2023-06-14T12:10:20;2.67;;;1.13;;
44328;SDS011;30039;51.462;6.892;2023-06-14T12:13:06;1.77;;;1.30;;
44328;SDS011;30039;51.462;6.892;2023-06-14T12:15:55;5.50;;;1.85;;
44328;SDS011;30039;51.462;6.892;2023-06-14T12:18:41;2.30;;;1.33;;
44328;SDS011;30039;51.462;6.892;2023-06-14T12:21:28;1.85;;;1.33;;
44328;SDS011;30039;51.462;6.892;2023-06-14T12:24:14;4.05;;;1.45;;
44328;SDS011;30039;51.462;6.892;2023-06-14T12:27:00;3.00;;;1.63;;
44328;SDS011;30039;51.462;6.892;2023-06-14T12:29:56;3.55;;;1.50;;
44328;SDS011;30039;51.462;6.892;2023-06-14T12:32:44;2.38;;;1.40;;
44328;SDS011;30039;51.462;6.892;2023-06-14T12:35:31;2.97;;;1.65;;
44328;SDS011;30039;51.462;6.892;2023-06-14T12:38:16;2.22;;;1.48;;
44328;SDS011;30039;51.462;6.892;2023-06-14T12:41:02;2.55;;;1.35;;
44328;SDS011;30039;51.462;6.892;2023-06-14T12:43:48;3.38;;;1.42;;
44328;SDS011;30039;51.462;6.892;2023-06-14T12:46:34;4.32;;;1.83;;
44328;SDS011;30039;51.462;6.892;2023-06-14T12:49:20;2.05;;;1.77;;
44328;SDS011;30039;51.462;6.892;2023-06-14T12:52:06;2.55;;;1.60;;
44328;SDS011;30039;51.462;6.892;2023-06-14T12:54:52;8.23;;;2.03;;
44328;SDS011;30039;51.462;6.892;2023-06-14T12:57:38;4.80;;;1.92;;
44328;SDS011;30039;51.462;6.892;2023-06-14T13:00:23;2.25;;;1.67;;
44328;SDS011;30039;51.462;6.892;2023-06-14T13:03:11;4.20;;;1.80;;
44328;SDS011;30039;51.462;6.892;2023-06-14T13:05:57;2.90;;;1.60;;
44328;SDS011;30039;51.462;6.892;2023-06-14T13:08:42;3.03;;;1.70;;
44328;SDS011;30039;51.462;6.892;2023-06-14T13:11:28;3.58;;;2.00;;
44328;SDS011;30039;51.462;6.892;2023-06-14T13:14:14;4.30;;;1.58;;
44328;SDS011;30039;51.462;6.892;2023-06-14T13:16:59;3.28;;;1.95;;
44328;SDS011;30039;51.462;6.892;2023-06-14T13:19:45;4.60;;;1.80;;
44328;SDS011;30039;51.462;6.892;2023-06-14T13:22:31;7.15;;;1.58;;
44328;SDS011;30039;51.462;6.892;2023-06-14T13:25:18;4.60;;;1.70;;
44328;SDS011;30039;51.462;6.892;2023-06-14T13:28:03;2.90;;;2.00;;
44328;SDS011;30039;51.462;6.892;2023-06-14T13:30:49;4.25;;;1.80;;
44328;SDS011;30039;51.462;6.892;2023-06-14T13:33:35;2.00;;;1.58;;
44328;SDS011;30039;51.462;6.892;2023-06-14T13:36:21;2.53;;;1.63;;
44328;SDS011;30039;51.462;6.892;2023-06-14T13:39:09;4.45;;;1.63;;
44328;SDS011;30039;51.462;6.892;2023-06-14T13:41:54;3.72;;;1.80;;
44328;SDS011;30039;51.462;6.892;2023-06-14T13:44:40;3.00;;;1.70;;
44328;SDS011;30039;51.462;6.892;2023-06-14T13:47:26;5.30;;;2.22;;
44328;SDS011;30039;51.462;6.892;2023-06-14T13:50:11;2.38;;;1.38;;
44328;SDS011;30039;51.462;6.892;2023-06-14T13:52:57;1.88;;;1.55;;
44328;SDS011;30039;51.462;6.892;2023-06-14T13:55:43;1.92;;;1.60;;
44328;SDS011;30039;51.462;6.892;2023-06-14T13:58:29;2.55;;;1.90;;
44328;SDS011;30039;51.462;6.892;2023-06-14T14:01:14;2.25;;;1.48;;
44328;SDS011;30039;51.462;6.892;2023-06-14T14:04:00;3.60;;;1.73;;
44328;SDS011;30039;51.462;6.892;2023-06-14T14:06:46;3.50;;;1.70;;
44328;SDS011;30039;51.462;6.892;2023-06-14T14:09:32;2.67;;;1.48;;
44328;SDS011;30039;51.462;6.892;2023-06-14T14:12:18;3.60;;;1.80;;
44328;SDS011;30039;51.462;6.892;2023-06-14T14:15:04;3.08;;;1.65;;
44328;SDS011;30039;51.462;6.892;2023-06-14T14:17:50;3.83;;;1.88;;
44328;SDS011;30039;51.462;6.892;2023-06-14T14:20:36;2.10;;;1.63;;
44328;SDS011;30039;51.462;6.892;2023-06-14T14:23:21;2.55;;;1.67;;
44328;SDS011;30039;51.462;6.892;2023-06-14T14:26:07;3.58;;;1.70;;
44328;SDS011;30039;51.462;6.892;2023-06-14T14:28:53;4.28;;;1.98;;
44328;SDS011;30039;51.462;6.892;2023-06-14T14:31:39;2.53;;;1.80;;
44328;SDS011;30039;51.462;6.892;2023-06-14T14:34:25;3.15;;;1.90;;
44328;SDS011;30039;51.462;6.892;2023-06-14T14:37:10;1.67;;;1.35;;
44328;SDS011;30039;51.462;6.892;2023-06-14T14:39:56;2.10;;;1.73;;
44328;SDS011;30039;51.462;6.892;2023-06-14T14:42:42;2.65;;;1.85;;
44328;SDS011;30039;51.462;6.892;2023-06-14T14:45:29;2.97;;;2.00;;
44328;SDS011;30039;51.462;6.892;2023-06-14T14:48:14;3.65;;;1.80;;
44328;SDS011;30039;51.462;6.892;2023-06-14T14:51:00;3.00;;;1.60;;
44328;SDS011;30039;51.462;6.892;2023-06-14T14:53:46;3.35;;;2.15;;
44328;SDS011;30039;51.462;6.892;2023-06-14T14:56:31;4.45;;;2.58;;
44328;SDS011;30039;51.462;6.892;2023-06-14T14:59:17;3.03;;;2.03;;
44328;SDS011;30039;51.462;6.892;2023-06-14T15:02:04;3.55;;;2.13;;
44328;SDS011;30039;51.462;6.892;2023-06-14T15:04:50;3.95;;;2.00;;
44328;SDS011;30039;51.462;6.892;2023-06-14T15:07:35;4.07;;;2.20;;
44328;SDS011;30039;51.462;6.892;2023-06-14T15:10:21;2.35;;;1.80;;
44328;SDS011;30039;51.462;6.892;2023-06-14T15:13:07;4.95;;;2.22;;
44328;SDS011;30039;51.462;6.892;2023-06-14T15:15:53;4.35;;;1.92;;
44328;SDS011;30039;51.462;6.892;2023-06-14T15:18:39;3.22;;;2.15;;
44328;SDS011;30039;51.462;6.892;2023-06-14T15:21:25;2.40;;;2.20;;
44328;SDS011;30039;51.462;6.892;2023-06-14T15:24:10;3.47;;;2.00;;
44328;SDS011;30039;51.462;6.892;2023-06-14T15:26:56;2.72;;;2.13;;
44328;SDS011;30039;51.462;6.892;2023-06-14T15:29:42;3.28;;;2.17;;
44328;SDS011;30039;51.462;6.892;2023-06-14T15:32:28;2.85;;;2.10;;
44328;SDS011;30039;51.462;6.892;2023-06-14T15:35:14;4.35;;;2.15;;
44328;SDS011;30039;51.462;6.892;2023-06-14T15:38:00;3.40;;;2.25;;
44328;SDS011;30039;51.462;6.892;2023-06-14T15:40:46;3.47;;;2.10;;
44328;SDS011;30039;51.462;6.892;2023-06-14T15:43:37;2.85;;;1.90;;
44328;SDS011;30039;51.462;6.892;2023-06-14T15:46:24;3.17;;;2.00;;
44328;SDS011;30039;51.462;6.892;2023-06-14T15:49:10;5.15;;;2.10;;
44328;SDS011;30039;51.462;6.892;2023-06-14T15:51:55;3.10;;;1.98;;
44328;SDS011;30039;51.462;6.892;2023-06-14T15:54:42;4.15;;;2.30;;
44328;SDS011;30039;51.462;6.892;2023-06-14T15:57:28;3.92;;;2.50;;
44328;SDS011;30039;51.462;6.892;2023-06-14T16:00:14;3.28;;;2.13;;
44328;SDS011;30039;51.462;6.892;2023-06-14T16:03:01;4.22;;;2.15;;
44328;SDS011;30039;51.462;6.892;2023-06-14T16:05:47;3.35;;;2.10;;
44328;SDS011;30039;51.462;6.892;2023-06-14T16:08:33;3.70;;;2.00;;
44328;SDS011;30039;51.462;6.892;2023-06-14T16:11:18;3.22;;;1.90;;
44328;SDS011;30039;51.462;6.892;2023-06-14T16:14:04;2.30;;;1.80;;
44328;SDS011;30039;51.462;6.892;2023-06-14T16:16:50;3.08;;;2.05;;
44328;SDS011;30039;51.462;6.892;2023-06-14T16:19:36;3.25;;;2.13;;
44328;SDS011;30039;51.462;6.892;2023-06-14T16:22:21;2.90;;;2.20;;
44328;SDS011;30039;51.462;6.892;2023-06-14T16:25:08;1.98;;;1.77;;
44328;SDS011;30039;51.462;6.892;2023-06-14T16:27:54;2.38;;;1.90;;
44328;SDS011;30039;51.462;6.892;2023-06-14T16:30:40;2.63;;;1.73;;
44328;SDS011;30039;51.462;6.892;2023-06-14T16:33:25;3.10;;;2.10;;
44328;SDS011;30039;51.462;6.892;2023-06-14T16:36:13;3.70;;;2.05;;
44328;SDS011;30039;51.462;6.892;2023-06-14T16:38:59;4.05;;;1.90;;
44328;SDS011;30039;51.462;6.892;2023-06-14T16:41:45;2.70;;;1.85;;
44328;SDS011;30039;51.462;6.892;2023-06-14T16:44:31;3.38;;;1.95;;
44328;SDS011;30039;51.462;6.892;2023-06-14T16:47:16;5.55;;;2.00;;
44328;SDS011;30039;51.462;6.892;2023-06-14T16:50:02;6.85;;;2.00;;
44328;SDS011;30039;51.462;6.892;2023-06-14T16:52:50;6.40;;;2.20;;